Weather at Regimento Artilharia military airfield

Public forecast

Using degrees Celsius for public forecast. Weather courtesy of forecast.io.

Closest aviation weather report (METAR) to Regimento Artilharia military airfield

Closest report is Montijo Air Base, 27.8 nm (51.5 km) W. Retrieved 2020/11/28 21:00 UTC (25 minutes ago):

LPMT 282100Z 17007KT 9999 FEW030 12/10 Q1006

Closest aviation forecast (TAF) to Regimento Artilharia military airfield

Closest forecast is Montijo Air Base, 27.8 nm (51.5 km) W. Retrieved 2020/11/28 18:21 UTC (3 hours ago):

TAF LPMT 281715Z 2818/2918 25008KT 7000 -RA FEW008 BKN014 BECMG 2818/2821 9999 NSW SCT022 BECMG 2822/2824 18008KT TEMPO 2821/2917 5000 SHRA BKN020 FEW022TCU PROB30 TEMPO 2909/2914 16015G25KT 2500 TSRA BKN018 SCT020CB